createdAt,value
2023-09-21T00:05:26.041Z,23.10
2023-09-21T00:20:37.688Z,22.99
2023-09-21T00:35:42.920Z,22.90
2023-09-21T00:50:45.656Z,22.72
2023-09-21T01:05:50.353Z,22.56
2023-09-21T01:20:56.465Z,22.48
2023-09-21T01:35:58.439Z,22.13
2023-09-21T01:51:00.947Z,21.94
2023-09-21T02:06:04.218Z,21.74
2023-09-21T02:21:09.069Z,21.58
2023-09-21T02:36:19.501Z,21.48
2023-09-21T02:51:21.941Z,21.25
2023-09-21T03:06:25.090Z,21.11
2023-09-21T03:21:27.199Z,21.11
2023-09-21T03:36:29.218Z,20.95
2023-09-21T03:51:31.472Z,20.95
2023-09-21T04:06:33.401Z,21.13
2023-09-21T04:21:35.488Z,21.38
2023-09-21T04:36:37.438Z,21.86
2023-09-21T04:51:40.187Z,22.51
2023-09-21T05:06:42.279Z,23.03
2023-09-21T05:21:45.590Z,23.96
2023-09-21T05:36:48.799Z,24.90
2023-09-21T05:51:54.180Z,26.12
2023-09-21T06:06:57.437Z,27.36
2023-09-21T06:22:00.164Z,28.15
2023-09-21T06:37:01.938Z,29.25
2023-09-21T06:52:06.808Z,29.61
2023-09-21T07:07:09.344Z,30.46
2023-09-21T07:22:11.989Z,31.75
2023-09-21T07:37:17.404Z,32.47
2023-09-21T07:52:19.550Z,33.41
2023-09-21T08:07:26.255Z,33.99
2023-09-21T08:22:28.372Z,34.42
2023-09-21T08:37:31.006Z,35.05
2023-09-21T08:52:34.747Z,35.33
2023-09-21T09:07:41.560Z,35.53
2023-09-21T09:22:44.420Z,36.56
2023-09-21T09:37:48.613Z,36.75
2023-09-21T09:52:52.933Z,36.97
2023-09-21T10:08:00.475Z,37.43
2023-09-21T10:23:06.938Z,34.48
2023-09-21T10:38:16.890Z,35.19
2023-09-21T10:53:19.449Z,35.71
2023-09-21T11:08:25.896Z,34.07
2023-09-21T11:23:28.011Z,34.41
2023-09-21T11:38:34.836Z,34.11
2023-09-21T11:53:38.682Z,33.60
2023-09-21T12:08:40.691Z,32.75
2023-09-21T12:23:42.776Z,32.65
2023-09-21T12:38:45.670Z,32.39
2023-09-21T12:53:47.849Z,31.69
2023-09-21T13:08:49.872Z,31.26
2023-09-21T13:23:57.743Z,30.92
2023-09-21T13:38:59.788Z,30.83
2023-09-21T13:54:03.710Z,30.56
2023-09-21T14:09:06.197Z,30.65
2023-09-21T14:24:10.373Z,30.62
2023-09-21T14:39:12.643Z,30.52
2023-09-21T14:54:14.870Z,30.25
2023-09-21T15:09:16.818Z,29.81
2023-09-21T15:24:21.309Z,29.45
2023-09-21T15:39:23.457Z,29.03
2023-09-21T15:54:29.776Z,28.75
2023-09-21T16:09:31.766Z,28.51
2023-09-21T16:24:34.989Z,28.03
2023-09-21T16:39:38.265Z,27.72
2023-09-21T16:54:40.396Z,27.45
2023-09-21T17:09:42.556Z,27.17
2023-09-21T17:24:44.627Z,26.86
2023-09-21T17:39:47.031Z,26.55
2023-09-21T17:54:51.599Z,26.23
2023-09-21T18:09:53.591Z,26.12
2023-09-21T18:24:55.803Z,25.83
2023-09-21T18:39:57.830Z,25.71
2023-09-21T18:55:00.317Z,25.65
2023-09-21T19:10:02.485Z,25.44
2023-09-21T19:25:05.032Z,25.19
2023-09-21T19:40:07.624Z,24.90
2023-09-21T19:55:10.735Z,24.77
2023-09-21T20:10:12.743Z,24.55
2023-09-21T20:25:14.936Z,24.46
2023-09-21T20:40:17.046Z,24.26
2023-09-21T20:55:20.425Z,24.15
2023-09-21T21:10:22.513Z,24.01
2023-09-21T21:25:24.530Z,24.08
2023-09-21T21:40:26.867Z,24.02
2023-09-21T21:55:28.953Z,23.88
2023-09-21T22:10:31.052Z,23.84
2023-09-21T22:25:35.285Z,23.82
2023-09-21T22:40:38.640Z,23.80
2023-09-21T22:55:40.799Z,23.76
2023-09-21T23:10:45.820Z,23.66
2023-09-21T23:25:49.770Z,23.57
2023-09-21T23:40:51.855Z,23.47
2023-09-21T23:55:53.937Z,23.17
